createdAt,value
2023-05-18T00:00:11.019Z,62.43
2023-05-18T00:03:55.065Z,62.10
2023-05-18T00:07:37.972Z,62.55
2023-05-18T00:11:22.752Z,62.84
2023-05-18T00:15:06.422Z,63.50
2023-05-18T00:18:49.170Z,64.29
2023-05-18T00:22:32.235Z,64.58
2023-05-18T00:26:14.920Z,64.48
2023-05-18T00:29:59.339Z,64.76
2023-05-18T00:33:42.024Z,64.70
2023-05-18T00:37:24.685Z,65.48
2023-05-18T00:41:07.494Z,65.88
2023-05-18T00:44:50.404Z,66.04
2023-05-18T00:48:34.516Z,66.27
2023-05-18T00:52:17.400Z,66.81
2023-05-18T00:56:00.597Z,66.19
2023-05-18T00:59:43.791Z,66.66
2023-05-18T01:03:30.182Z,67.02
2023-05-18T01:07:16.642Z,66.59
2023-05-18T01:11:03.727Z,66.51
2023-05-18T01:14:51.060Z,66.79
2023-05-18T01:18:38.227Z,66.58
2023-05-18T01:22:37.669Z,66.66
2023-05-18T01:26:29.763Z,67.03
2023-05-18T01:30:13.691Z,67.28
2023-05-18T01:33:56.416Z,67.57
2023-05-18T01:37:39.156Z,67.83
2023-05-18T01:41:24.341Z,67.85
2023-05-18T01:45:10.673Z,67.16
2023-05-18T01:48:57.720Z,66.66
2023-05-18T01:52:44.060Z,66.60
2023-05-18T01:56:28.767Z,66.94
2023-05-18T02:00:13.353Z,66.96
2023-05-18T02:03:56.327Z,67.35
2023-05-18T02:07:39.422Z,67.40
2023-05-18T02:11:23.924Z,67.52
2023-05-18T02:15:09.286Z,67.65
2023-05-18T02:18:53.345Z,67.57
2023-05-18T02:22:36.396Z,67.76
2023-05-18T02:26:19.067Z,67.94
2023-05-18T02:30:04.492Z,68.40
2023-05-18T02:33:48.585Z,68.56
2023-05-18T02:37:39.259Z,69.07
2023-05-18T02:41:22.832Z,69.29
2023-05-18T02:45:06.386Z,69.92
2023-05-18T02:48:50.471Z,69.62
2023-05-18T02:52:34.058Z,70.34
2023-05-18T02:56:19.115Z,70.64
2023-05-18T03:00:01.883Z,70.69
2023-05-18T03:03:44.662Z,71.26
2023-05-18T03:07:28.736Z,71.69
2023-05-18T03:11:11.420Z,72.01
2023-05-18T03:14:54.143Z,72.46
2023-05-18T03:18:36.972Z,72.03
2023-05-18T03:22:19.875Z,72.60
2023-05-18T03:26:04.003Z,73.04
2023-05-18T03:29:46.841Z,73.26
2023-05-18T03:33:29.612Z,73.45
2023-05-18T03:37:12.410Z,73.79
2023-05-18T03:40:56.286Z,73.75
2023-05-18T03:44:40.465Z,74.32
2023-05-18T03:48:23.781Z,74.50
2023-05-18T03:52:07.238Z,74.74
2023-05-18T03:55:50.241Z,74.71
2023-05-18T03:59:32.943Z,75.28
2023-05-18T04:03:17.164Z,75.56
2023-05-18T04:07:02.386Z,75.81
2023-05-18T04:10:45.581Z,76.28
2023-05-18T04:14:28.312Z,76.55
2023-05-18T04:18:11.384Z,76.64
2023-05-18T04:21:55.490Z,76.71
2023-05-18T04:25:39.391Z,77.20
2023-05-18T04:29:24.217Z,77.82
2023-05-18T04:33:07.591Z,78.01
2023-05-18T04:36:50.363Z,78.30
2023-05-18T04:40:38.059Z,78.57
2023-05-18T04:44:20.920Z,78.76
2023-05-18T04:48:03.654Z,78.55
2023-05-18T04:51:46.958Z,78.39
2023-05-18T04:55:31.380Z,78.63
2023-05-18T04:59:16.089Z,78.02
2023-05-18T05:02:59.696Z,78.02
2023-05-18T05:06:42.565Z,77.55
2023-05-18T05:10:25.390Z,77.46
2023-05-18T05:14:08.310Z,76.88
2023-05-18T05:17:52.438Z,77.21
2023-05-18T05:21:35.170Z,76.30
2023-05-18T05:25:17.861Z,76.24
2023-05-18T05:29:00.683Z,74.91
2023-05-18T05:32:43.483Z,75.26
2023-05-18T05:36:27.704Z,75.06
2023-05-18T05:40:13.902Z,74.71
2023-05-18T05:43:56.977Z,74.94
2023-05-18T05:47:39.742Z,75.18
2023-05-18T05:51:22.500Z,75.18
2023-05-18T05:55:07.446Z,74.67
2023-05-18T05:58:50.136Z,74.24
2023-05-18T06:02:34.297Z,74.14
2023-05-18T06:06:17.473Z,72.38
2023-05-18T06:10:00.224Z,71.07
2023-05-18T06:13:44.265Z,70.74
2023-05-18T06:17:27.457Z,70.51
2023-05-18T06:21:10.234Z,70.92
2023-05-18T06:24:52.953Z,69.53
2023-05-18T06:28:35.674Z,68.88
2023-05-18T06:32:20.182Z,67.87
2023-05-18T06:36:03.024Z,67.80
2023-05-18T06:39:45.883Z,68.35
2023-05-18T06:43:28.732Z,67.12
2023-05-18T06:47:11.631Z,66.89
2023-05-18T06:50:56.220Z,66.91
2023-05-18T06:54:38.957Z,67.39
2023-05-18T06:58:21.929Z,66.65
2023-05-18T07:02:04.779Z,66.29
2023-05-18T07:05:47.586Z,66.56
2023-05-18T07:09:31.727Z,67.00
2023-05-18T07:13:14.666Z,66.59
2023-05-18T07:16:57.384Z,64.50
2023-05-18T07:20:40.100Z,64.87
2023-05-18T07:24:22.825Z,64.33
2023-05-18T07:28:07.058Z,63.43
2023-05-18T07:31:49.859Z,62.37
2023-05-18T07:35:32.786Z,60.97
2023-05-18T07:39:19.490Z,61.05
2023-05-18T07:43:02.496Z,59.56
2023-05-18T07:46:46.830Z,58.59
2023-05-18T07:50:30.489Z,58.29
2023-05-18T07:54:13.679Z,58.76
2023-05-18T07:57:56.398Z,58.85
2023-05-18T08:01:41.279Z,59.06
2023-05-18T08:05:25.390Z,59.63
2023-05-18T08:09:08.123Z,58.03
2023-05-18T08:12:51.621Z,55.61
2023-05-18T08:16:37.289Z,56.09
2023-05-18T08:20:20.357Z,56.45
2023-05-18T08:24:05.635Z,57.21
2023-05-18T08:27:48.339Z,55.94
2023-05-18T08:31:31.045Z,57.43
2023-05-18T08:35:13.761Z,57.33
2023-05-18T08:38:56.552Z,57.76
2023-05-18T08:42:50.556Z,56.18
2023-05-18T08:46:35.284Z,56.88
2023-05-18T08:50:19.291Z,57.46
2023-05-18T08:54:02.519Z,57.61
2023-05-18T08:57:50.047Z,57.56
2023-05-18T09:01:33.120Z,57.81
2023-05-18T09:05:17.094Z,56.13
2023-05-18T09:09:04.363Z,55.36
2023-05-18T09:12:48.547Z,55.39
2023-05-18T09:16:31.497Z,55.44
2023-05-18T09:20:14.464Z,55.54
2023-05-18T09:23:57.197Z,57.30
2023-05-18T09:27:40.016Z,56.90
2023-05-18T09:31:26.715Z,56.01
2023-05-18T09:35:10.576Z,56.49
2023-05-18T09:38:53.653Z,56.40
2023-05-18T09:42:39.666Z,55.29
2023-05-18T09:46:23.863Z,55.09
2023-05-18T09:50:08.004Z,55.62
2023-05-18T09:53:54.681Z,55.68
2023-05-18T09:57:40.847Z,55.61
2023-05-18T10:01:24.967Z,55.66
2023-05-18T10:05:09.357Z,55.03
2023-05-18T10:08:52.044Z,54.64
2023-05-18T10:12:35.227Z,54.91
2023-05-18T10:16:18.019Z,54.99
2023-05-18T10:20:02.468Z,55.20
2023-05-18T10:23:46.544Z,54.92
2023-05-18T10:27:29.346Z,55.76
2023-05-18T10:31:12.205Z,54.79
2023-05-18T10:34:56.199Z,51.39
2023-05-18T10:38:40.711Z,51.93
2023-05-18T10:42:23.734Z,52.17
2023-05-18T10:46:08.536Z,51.97
2023-05-18T10:49:52.530Z,52.17
2023-05-18T10:53:36.583Z,51.98
2023-05-18T10:57:21.916Z,52.37
2023-05-18T11:01:07.494Z,53.19
2023-05-18T11:04:52.582Z,53.00
2023-05-18T11:08:43.819Z,52.22
2023-05-18T11:12:28.085Z,52.73
2023-05-18T11:16:10.924Z,52.69
2023-05-18T11:20:16.033Z,53.28
2023-05-18T11:24:20.250Z,53.47
2023-05-18T11:28:06.297Z,53.55
2023-05-18T11:31:50.316Z,52.71
2023-05-18T11:35:34.758Z,53.15
2023-05-18T11:39:25.020Z,53.04
2023-05-18T11:43:09.891Z,53.64
2023-05-18T11:46:54.879Z,53.04
2023-05-18T11:50:37.820Z,52.94
2023-05-18T11:54:20.950Z,53.11
2023-05-18T11:58:03.680Z,52.80
2023-05-18T12:01:48.188Z,52.39
2023-05-18T12:05:31.921Z,52.40
2023-05-18T12:09:15.599Z,52.61
2023-05-18T12:12:58.421Z,52.23
2023-05-18T12:16:41.616Z,51.88
2023-05-18T12:20:26.729Z,52.56
2023-05-18T12:24:09.978Z,52.95
2023-05-18T12:27:54.096Z,51.37
2023-05-18T12:31:41.121Z,52.23
2023-05-18T12:35:25.653Z,51.30
2023-05-18T12:39:08.957Z,50.31
2023-05-18T12:42:54.956Z,50.03
2023-05-18T12:46:37.794Z,50.15
2023-05-18T12:50:21.205Z,49.93
2023-05-18T12:54:06.260Z,50.05
2023-05-18T12:58:00.550Z,50.78
2023-05-18T13:01:43.982Z,50.94
2023-05-18T13:05:26.717Z,49.95
2023-05-18T13:09:13.212Z,50.22
2023-05-18T13:13:01.366Z,50.48
2023-05-18T13:16:46.548Z,50.69
2023-05-18T13:20:36.213Z,50.34
2023-05-18T13:24:20.879Z,50.18
2023-05-18T13:28:03.861Z,49.71
2023-05-18T13:31:46.667Z,49.86
2023-05-18T13:35:29.738Z,50.18
2023-05-18T13:39:13.338Z,50.11
2023-05-18T13:42:57.700Z,50.58
2023-05-18T13:46:40.765Z,51.25
2023-05-18T13:50:26.011Z,51.55
2023-05-18T13:54:09.012Z,51.37
2023-05-18T13:57:51.833Z,50.43
2023-05-18T14:01:42.319Z,51.19
2023-05-18T14:05:25.256Z,51.39
2023-05-18T14:09:08.406Z,51.73
2023-05-18T14:12:51.143Z,50.46
2023-05-18T14:16:36.667Z,50.82
2023-05-18T14:20:19.802Z,50.82
2023-05-18T14:24:03.895Z,50.93
2023-05-18T14:27:46.629Z,51.21
2023-05-18T14:31:29.486Z,51.52
2023-05-18T14:35:13.722Z,52.48
2023-05-18T14:38:56.587Z,52.59
2023-05-18T14:42:42.331Z,53.04
2023-05-18T14:46:25.093Z,52.79
2023-05-18T14:50:08.877Z,52.98
2023-05-18T14:53:52.985Z,53.14
2023-05-18T14:57:35.760Z,53.44
2023-05-18T15:01:18.600Z,52.96
2023-05-18T15:05:01.301Z,53.55
2023-05-18T15:08:45.246Z,54.14
2023-05-18T15:12:29.342Z,54.62
2023-05-18T15:16:12.901Z,54.79
2023-05-18T15:19:55.614Z,54.89
2023-05-18T15:23:38.407Z,54.95
2023-05-18T15:27:21.161Z,55.35
2023-05-18T15:31:05.266Z,55.78
2023-05-18T15:34:48.068Z,55.46
2023-05-18T15:38:30.841Z,55.45
2023-05-18T15:42:13.582Z,55.16
2023-05-18T15:45:56.393Z,55.24
2023-05-18T15:49:40.465Z,55.71
2023-05-18T15:53:23.142Z,55.91
2023-05-18T15:57:06.525Z,56.24
2023-05-18T16:00:49.387Z,56.21
2023-05-18T16:04:32.096Z,56.28
2023-05-18T16:08:18.061Z,56.06
2023-05-18T16:12:00.862Z,56.32
2023-05-18T16:15:43.664Z,56.62
2023-05-18T16:19:26.566Z,56.87
2023-05-18T16:23:09.303Z,57.25
2023-05-18T16:26:53.415Z,57.44
2023-05-18T16:30:36.191Z,57.67
2023-05-18T16:34:18.908Z,57.54
2023-05-18T16:38:01.643Z,57.15
2023-05-18T16:41:44.368Z,56.94
2023-05-18T16:45:28.507Z,57.12
2023-05-18T16:49:11.228Z,57.41
2023-05-18T16:52:53.958Z,57.62
2023-05-18T16:56:36.821Z,57.85
2023-05-18T17:00:20.096Z,57.87
2023-05-18T17:04:04.326Z,57.98
2023-05-18T17:07:47.438Z,58.33
2023-05-18T17:11:30.112Z,58.27
2023-05-18T17:15:13.449Z,58.53
2023-05-18T17:18:57.596Z,58.49
2023-05-18T17:22:41.770Z,58.77
2023-05-18T17:26:25.449Z,58.71
2023-05-18T17:30:09.430Z,59.30
2023-05-18T17:33:52.179Z,59.25
2023-05-18T17:37:34.920Z,59.59
2023-05-18T17:41:21.377Z,59.78
2023-05-18T17:45:04.394Z,59.45
2023-05-18T17:48:47.535Z,59.63
2023-05-18T17:52:30.237Z,59.80
2023-05-18T17:56:13.201Z,59.90
2023-05-18T17:59:57.261Z,60.05
2023-05-18T18:03:40.052Z,60.37
2023-05-18T18:07:23.320Z,60.80
2023-05-18T18:11:09.089Z,60.63
2023-05-18T18:14:53.310Z,60.71
2023-05-18T18:18:38.347Z,60.66
2023-05-18T18:22:22.522Z,60.62
2023-05-18T18:26:06.062Z,60.52
2023-05-18T18:29:50.653Z,60.28
2023-05-18T18:33:33.601Z,60.36
2023-05-18T18:37:18.393Z,60.23
2023-05-18T18:41:04.420Z,60.11
2023-05-18T18:44:47.189Z,60.60
2023-05-18T18:48:30.050Z,61.34
2023-05-18T18:52:14.203Z,61.55
2023-05-18T18:55:59.794Z,61.50
2023-05-18T18:59:42.699Z,61.92
2023-05-18T19:03:26.502Z,61.98
2023-05-18T19:07:11.757Z,61.56
2023-05-18T19:10:54.449Z,61.85
2023-05-18T19:14:38.508Z,61.75
2023-05-18T19:18:21.243Z,61.71
2023-05-18T19:22:04.092Z,61.20
2023-05-18T19:25:46.875Z,61.96
2023-05-18T19:29:29.516Z,61.64
2023-05-18T19:33:13.699Z,63.13
2023-05-18T19:36:56.423Z,63.54
2023-05-18T19:40:39.157Z,63.59
2023-05-18T19:44:21.937Z,62.28
2023-05-18T19:48:04.935Z,62.36
2023-05-18T19:51:49.209Z,62.06
2023-05-18T19:55:32.224Z,61.87
2023-05-18T19:59:15.169Z,61.69
2023-05-18T20:02:57.879Z,63.31
2023-05-18T20:06:40.624Z,62.76
2023-05-18T20:10:24.813Z,62.11
2023-05-18T20:14:07.580Z,61.88
2023-05-18T20:17:50.589Z,61.92
2023-05-18T20:21:34.009Z,62.05
2023-05-18T20:25:16.920Z,62.16
2023-05-18T20:29:00.963Z,61.31
2023-05-18T20:32:43.771Z,61.65
2023-05-18T20:36:27.042Z,61.03
2023-05-18T20:40:10.628Z,60.88
2023-05-18T20:43:53.686Z,60.78
2023-05-18T20:47:37.787Z,60.33
2023-05-18T20:51:23.357Z,61.06
2023-05-18T20:55:07.316Z,60.87
2023-05-18T20:58:50.404Z,61.42
2023-05-18T21:02:33.524Z,62.18
2023-05-18T21:06:17.660Z,61.93
2023-05-18T21:10:01.642Z,62.28
2023-05-18T21:13:44.384Z,62.74
2023-05-18T21:17:27.253Z,63.20
2023-05-18T21:21:10.196Z,62.99
2023-05-18T21:24:54.327Z,63.02
2023-05-18T21:28:37.017Z,62.93
2023-05-18T21:32:20.139Z,62.67
2023-05-18T21:36:04.207Z,62.91
2023-05-18T21:39:47.026Z,62.95
2023-05-18T21:43:31.219Z,63.23
2023-05-18T21:47:14.017Z,62.95
2023-05-18T21:50:56.690Z,63.59
2023-05-18T21:54:39.489Z,63.71
2023-05-18T21:58:22.210Z,63.17
2023-05-18T22:02:06.529Z,63.44
2023-05-18T22:05:49.207Z,63.91
2023-05-18T22:09:31.897Z,63.69
2023-05-18T22:13:14.696Z,63.34
2023-05-18T22:16:57.443Z,63.75
2023-05-18T22:20:41.570Z,63.74
2023-05-18T22:24:24.411Z,63.71
2023-05-18T22:28:07.124Z,63.66
2023-05-18T22:31:49.942Z,63.39
2023-05-18T22:35:32.873Z,63.64
2023-05-18T22:39:18.113Z,63.71
2023-05-18T22:43:00.777Z,63.54
2023-05-18T22:46:43.781Z,64.14
2023-05-18T22:50:27.325Z,64.60
2023-05-18T22:54:10.156Z,64.63
2023-05-18T22:57:54.245Z,64.83
2023-05-18T23:01:37.687Z,64.85
2023-05-18T23:05:20.992Z,64.98
2023-05-18T23:09:04.010Z,65.12
2023-05-18T23:12:48.411Z,64.96
2023-05-18T23:16:32.627Z,65.43
2023-05-18T23:20:15.430Z,65.35
2023-05-18T23:24:00.142Z,65.74
2023-05-18T23:27:42.916Z,66.02
2023-05-18T23:31:26.043Z,66.09
2023-05-18T23:35:13.970Z,66.31
2023-05-18T23:39:02.032Z,66.39
2023-05-18T23:42:45.400Z,66.35
2023-05-18T23:46:29.079Z,66.42
2023-05-18T23:50:15.782Z,66.70
2023-05-18T23:53:58.884Z,66.46
2023-05-18T23:57:42.111Z,66.48
